Time;durP1;ratioP1;P1;durP2;ratioP2;P2;SDS_P1;SDS_P2;PMS_P1;PMS_P2;Temp;Humidity;BMP_temperature;BMP_pressure;BME280_temperature;BME280_humidity;BME280_pressure;Samples;Min_cycle;Max_cycle;Signal;HPM_P1;HPM_P2
2021/08/15 00:01:37;;;;;;;10.50;7.70;;;;;;;;;;5092908;28;20028;-44
2021/08/15 00:04:04;;;;;;;11.00;7.15;;;;;;;;;;5092904;28;20507;-44
2021/08/15 00:06:30;;;;;;;11.50;8.20;;;;;;;;;;5092887;28;20035;-44
2021/08/15 00:08:56;;;;;;;11.93;9.00;;;;;;;;;;5092714;28;20020;-44
2021/08/15 00:11:22;;;;;;;14.02;10.38;;;;;;;;;;5092738;28;20020;-44
2021/08/15 00:13:48;;;;;;;18.63;9.27;;;;;;;;;;5092715;28;20520;-45
2021/08/15 00:16:14;;;;;;;16.65;10.25;;;;;;;;;;5093100;28;20391;-45
2021/08/15 00:18:40;;;;;;;12.40;8.73;;;;;;;;;;5092789;28;20434;-43
2021/08/15 00:21:06;;;;;;;15.20;9.70;;;;;;;;;;5092720;28;20028;-44
2021/08/15 00:23:32;;;;;;;16.25;10.82;;;;;;;;;;5092560;28;20520;-44
2021/08/15 00:25:58;;;;;;;17.67;11.70;;;;;;;;;;5092468;28;20074;-44
2021/08/15 00:28:25;;;;;;;17.10;11.70;;;;;;;;;;5092518;28;20028;-43
2021/08/15 00:30:51;;;;;;;20.10;12.68;;;;;;;;;;5074629;28;20437;-45
2021/08/15 00:33:17;;;;;;;21.25;13.75;;;;;;;;;;5092444;28;20012;-44
2021/08/15 00:35:43;;;;;;;22.75;15.30;;;;;;;;;;5092384;28;20380;-44
2021/08/15 00:38:09;;;;;;;20.13;14.13;;;;;;;;;;5092323;28;20012;-46
2021/08/15 00:40:35;;;;;;;21.35;14.75;;;;;;;;;;5092132;28;20398;-45
2021/08/15 00:43:01;;;;;;;24.77;15.18;;;;;;;;;;5092243;28;20020;-44
2021/08/15 00:45:27;;;;;;;23.58;16.02;;;;;;;;;;5091527;28;20028;-48
2021/08/15 00:47:53;;;;;;;22.27;14.60;;;;;;;;;;5092094;28;20534;-45
2021/08/15 00:50:19;;;;;;;22.27;15.00;;;;;;;;;;5092080;28;20116;-48
2021/08/15 00:52:45;;;;;;;24.90;15.65;;;;;;;;;;5092150;28;20430;-45
2021/08/15 00:55:12;;;;;;;19.23;14.07;;;;;;;;;;5091966;28;20050;-44
2021/08/15 00:57:41;;;;;;;20.90;14.85;;;;;;;;;;5091963;28;20073;-43
2021/08/15 01:00:08;;;;;;;24.35;14.30;;;;;;;;;;5092119;28;20077;-44
2021/08/15 01:02:41;;;;;;;24.55;15.10;;;;;;;;;;5092034;28;20500;-43
2021/08/15 01:05:08;;;;;;;25.55;15.88;;;;;;;;;;5091891;28;20020;-44
2021/08/15 01:07:34;;;;;;;24.00;16.23;;;;;;;;;;5091740;28;20043;-46
2021/08/15 01:10:00;;;;;;;21.13;16.20;;;;;;;;;;5091834;28;20111;-44
2021/08/15 01:12:27;;;;;;;25.70;17.48;;;;;;;;;;5091815;28;20027;-44
2021/08/15 01:14:53;;;;;;;21.52;15.07;;;;;;;;;;5091947;28;20425;-46
2021/08/15 01:17:22;;;;;;;23.80;15.10;;;;;;;;;;5091516;28;20044;-45
2021/08/15 01:19:51;;;;;;;24.42;16.33;;;;;;;;;;5091770;28;20141;-45
2021/08/15 01:22:17;;;;;;;22.98;14.07;;;;;;;;;;5091650;28;20024;-45
2021/08/15 01:24:43;;;;;;;23.17;16.42;;;;;;;;;;5091678;28;20088;-45
2021/08/15 01:27:09;;;;;;;20.88;14.57;;;;;;;;;;5091645;28;20105;-45
2021/08/15 01:29:35;;;;;;;20.38;14.82;;;;;;;;;;5091544;28;20035;-45
2021/08/15 01:32:01;;;;;;;20.90;14.25;;;;;;;;;;5091577;28;20103;-45
2021/08/15 01:34:27;;;;;;;20.15;14.02;;;;;;;;;;5091517;28;20016;-44
2021/08/15 01:36:53;;;;;;;20.95;12.55;;;;;;;;;;5073495;28;20039;-46
2021/08/15 01:39:19;;;;;;;20.80;14.13;;;;;;;;;;5091629;28;20020;-49
2021/08/15 01:41:45;;;;;;;21.40;14.23;;;;;;;;;;5091557;28;20103;-45
2021/08/15 01:44:11;;;;;;;18.40;13.05;;;;;;;;;;5091467;28;20099;-44
2021/08/15 01:46:37;;;;;;;18.70;13.48;;;;;;;;;;5091531;28;20020;-45
2021/08/15 01:49:04;;;;;;;20.65;14.32;;;;;;;;;;5091259;28;20032;-45
2021/08/15 01:51:31;;;;;;;22.30;14.98;;;;;;;;;;5091363;28;20028;-49
2021/08/15 01:53:57;;;;;;;17.65;12.90;;;;;;;;;;5091430;28;20044;-46
2021/08/15 01:56:24;;;;;;;21.25;14.07;;;;;;;;;;5091487;28;20485;-46
2021/08/15 01:58:50;;;;;;;21.20;14.63;;;;;;;;;;5095481;28;20024;-45
2021/08/15 02:01:20;;;;;;;19.88;14.13;;;;;;;;;;5095355;28;20020;-45
2021/08/15 02:03:47;;;;;;;20.95;15.07;;;;;;;;;;5095297;28;20030;-45
2021/08/15 02:06:14;;;;;;;21.02;14.57;;;;;;;;;;5095223;28;20024;-46
2021/08/15 02:08:40;;;;;;;18.42;13.80;;;;;;;;;;5095304;28;20562;-45
2021/08/15 02:11:06;;;;;;;25.83;14.68;;;;;;;;;;5095073;28;20059;-45
2021/08/15 02:13:32;;;;;;;22.17;13.77;;;;;;;;;;5095112;28;20051;-49
2021/08/15 02:15:58;;;;;;;18.23;13.23;;;;;;;;;;5095110;28;20450;-45
2021/08/15 02:18:24;;;;;;;26.00;16.00;;;;;;;;;;5094854;28;20062;-45
2021/08/15 02:20:50;;;;;;;23.77;15.32;;;;;;;;;;5095075;28;20024;-46
2021/08/15 02:23:16;;;;;;;30.55;18.20;;;;;;;;;;5095192;28;20032;-45
2021/08/15 02:25:42;;;;;;;45.78;26.92;;;;;;;;;;5076855;28;20039;-44
2021/08/15 02:28:08;;;;;;;47.38;26.35;;;;;;;;;;5095128;28;20035;-45
2021/08/15 02:30:35;;;;;;;50.65;30.75;;;;;;;;;;5094686;28;20032;-45
2021/08/15 02:33:01;;;;;;;47.55;29.73;;;;;;;;;;5094646;28;20058;-45
2021/08/15 02:35:31;;;;;;;44.90;27.38;;;;;;;;;;5094674;28;20028;-45
2021/08/15 02:37:57;;;;;;;45.60;26.88;;;;;;;;;;5094625;28;20103;-45
2021/08/15 02:40:23;;;;;;;46.65;27.92;;;;;;;;;;5094511;28;20020;-45
2021/08/15 02:42:50;;;;;;;42.00;27.17;;;;;;;;;;5094557;28;20102;-45
2021/08/15 02:45:17;;;;;;;37.65;21.90;;;;;;;;;;5094514;28;20027;-45
2021/08/15 02:47:43;;;;;;;31.60;21.08;;;;;;;;;;5094472;28;20058;-48
2021/08/15 02:50:10;;;;;;;30.73;20.20;;;;;;;;;;5094570;28;20028;-46
2021/08/15 02:52:36;;;;;;;26.77;17.65;;;;;;;;;;5094320;28;20103;-47
2021/08/15 02:55:03;;;;;;;32.95;17.50;;;;;;;;;;5094300;28;20077;-48
2021/08/15 02:57:29;;;;;;;30.42;16.20;;;;;;;;;;5094245;28;20436;-44
2021/08/15 02:59:55;;;;;;;29.73;16.30;;;;;;;;;;5075982;28;20059;-45
2021/08/15 03:02:21;;;;;;;28.27;15.68;;;;;;;;;;5094085;28;20524;-44
2021/08/15 03:04:47;;;;;;;27.15;14.23;;;;;;;;;;5094287;28;20039;-44
2021/08/15 03:07:14;;;;;;;27.30;15.38;;;;;;;;;;5094091;28;20024;-45
2021/08/15 03:09:40;;;;;;;25.23;15.23;;;;;;;;;;5075134;28;20016;-44
2021/08/15 03:12:06;;;;;;;19.63;13.57;;;;;;;;;;5093949;28;20102;-44
2021/08/15 03:14:32;;;;;;;20.55;13.63;;;;;;;;;;5093860;28;20028;-43
2021/08/15 03:16:59;;;;;;;21.23;13.90;;;;;;;;;;5093922;28;20035;-44
2021/08/15 03:19:25;;;;;;;24.63;13.30;;;;;;;;;;5093837;28;20036;-46
2021/08/15 03:21:51;;;;;;;22.35;13.43;;;;;;;;;;5093892;28;20028;-45
2021/08/15 03:24:17;;;;;;;19.52;12.60;;;;;;;;;;5093698;28;20032;-46
2021/08/15 03:26:45;;;;;;;19.65;12.90;;;;;;;;;;5093772;28;20051;-46
2021/08/15 03:29:14;;;;;;;15.98;11.30;;;;;;;;;;5093523;28;20116;-44
2021/08/15 03:31:41;;;;;;;20.73;11.68;;;;;;;;;;5093599;28;20042;-45
2021/08/15 03:34:07;;;;;;;15.10;10.75;;;;;;;;;;5093638;28;20028;-44
2021/08/15 03:36:33;;;;;;;15.38;10.63;;;;;;;;;;5093503;28;20027;-44
2021/08/15 03:38:59;;;;;;;15.82;10.77;;;;;;;;;;5093383;28;20028;-46
2021/08/15 03:41:25;;;;;;;17.67;11.00;;;;;;;;;;5093353;28;20085;-45
2021/08/15 03:43:51;;;;;;;15.57;10.27;;;;;;;;;;5093738;28;20099;-45
2021/08/15 03:46:17;;;;;;;18.58;11.00;;;;;;;;;;5075152;28;20535;-44
2021/08/15 03:48:43;;;;;;;16.45;10.77;;;;;;;;;;5093293;28;20052;-45
2021/08/15 03:51:09;;;;;;;14.85;9.77;;;;;;;;;;5093189;28;20027;-45
2021/08/15 03:53:35;;;;;;;14.05;9.95;;;;;;;;;;5075320;28;20501;-45
2021/08/15 03:56:01;;;;;;;14.63;9.90;;;;;;;;;;5093421;28;20028;-45
2021/08/15 03:58:30;;;;;;;20.58;9.93;;;;;;;;;;5093147;28;20160;-45
2021/08/15 04:00:56;;;;;;;14.70;10.32;;;;;;;;;;5093088;28;20478;-44
2021/08/15 04:03:23;;;;;;;14.38;9.88;;;;;;;;;;5093367;28;20658;-45
2021/08/15 04:05:49;;;;;;;13.20;9.23;;;;;;;;;;5093333;28;20093;-44
2021/08/15 04:08:15;;;;;;;16.75;9.93;;;;;;;;;;5092890;28;20028;-46
2021/08/15 04:10:41;;;;;;;14.35;9.48;;;;;;;;;;5092755;28;20493;-45
2021/08/15 04:13:07;;;;;;;13.63;9.32;;;;;;;;;;5092788;28;20020;-44
2021/08/15 04:15:33;;;;;;;15.75;9.90;;;;;;;;;;5092691;28;20051;-45
2021/08/15 04:17:59;;;;;;;15.90;9.77;;;;;;;;;;5092511;28;20475;-44
2021/08/15 04:20:25;;;;;;;12.55;9.38;;;;;;;;;;5091708;28;20052;-44
2021/08/15 04:22:51;;;;;;;17.83;10.10;;;;;;;;;;5092599;28;20024;-44
2021/08/15 04:25:18;;;;;;;16.85;10.95;;;;;;;;;;5092561;28;20036;-44
2021/08/15 04:27:44;;;;;;;22.10;12.43;;;;;;;;;;5092472;28;20081;-45
2021/08/15 04:30:10;;;;;;;24.75;14.68;;;;;;;;;;5092359;28;20024;-46
2021/08/15 04:32:36;;;;;;;26.95;16.42;;;;;;;;;;5092362;28;20028;-46
2021/08/15 04:35:03;;;;;;;26.00;15.50;;;;;;;;;;5092434;28;20016;-46
2021/08/15 04:37:30;;;;;;;31.95;17.63;;;;;;;;;;5092291;28;20046;-44
2021/08/15 04:39:56;;;;;;;25.83;14.95;;;;;;;;;;5092223;28;20016;-46
2021/08/15 04:42:22;;;;;;;29.17;16.15;;;;;;;;;;5092285;28;20024;-45
2021/08/15 04:44:48;;;;;;;29.77;17.08;;;;;;;;;;5092102;28;20073;-45
2021/08/15 04:47:14;;;;;;;25.08;15.40;;;;;;;;;;5092228;28;20027;-45
2021/08/15 04:49:40;;;;;;;25.25;14.75;;;;;;;;;;5092094;28;20059;-48
2021/08/15 04:52:06;;;;;;;21.40;14.75;;;;;;;;;;5092158;28;20024;-47
2021/08/15 04:54:33;;;;;;;23.30;14.30;;;;;;;;;;5092069;28;20039;-49
2021/08/15 04:56:59;;;;;;;23.80;16.13;;;;;;;;;;5092299;28;20020;-48
2021/08/15 04:59:26;;;;;;;23.42;16.25;;;;;;;;;;5092003;28;20020;-48
2021/08/15 05:01:52;;;;;;;25.02;16.60;;;;;;;;;;5091984;28;20028;-45
2021/08/15 05:04:18;;;;;;;22.70;15.13;;;;;;;;;;5091910;28;20509;-44
2021/08/15 05:06:44;;;;;;;28.08;16.20;;;;;;;;;;5092002;28;20067;-43
2021/08/15 05:09:11;;;;;;;24.38;16.48;;;;;;;;;;5092005;28;20085;-45
2021/08/15 05:11:37;;;;;;;25.48;16.60;;;;;;;;;;5092228;28;20495;-44
2021/08/15 05:14:05;;;;;;;21.42;16.02;;;;;;;;;;5091911;28;20028;-44
2021/08/15 05:16:31;;;;;;;21.63;14.80;;;;;;;;;;5092139;28;20028;-43
2021/08/15 05:18:57;;;;;;;21.40;15.93;;;;;;;;;;5091728;28;20105;-46
2021/08/15 05:21:23;;;;;;;25.55;17.48;;;;;;;;;;5091716;28;20023;-44
2021/08/15 05:23:49;;;;;;;26.50;20.52;;;;;;;;;;5091575;28;20047;-44
2021/08/15 05:26:15;;;;;;;25.65;19.70;;;;;;;;;;5091854;28;20024;-43
2021/08/15 05:28:41;;;;;;;26.38;19.52;;;;;;;;;;5091750;28;20020;-43
2021/08/15 05:31:07;;;;;;;24.98;19.02;;;;;;;;;;5091507;28;20481;-44
2021/08/15 05:33:33;;;;;;;26.27;19.58;;;;;;;;;;5098240;28;20024;-47
2021/08/15 05:35:59;;;;;;;24.00;16.80;;;;;;;;;;5080313;28;20023;-45
2021/08/15 05:38:25;;;;;;;25.17;18.42;;;;;;;;;;5098783;28;20390;-44
2021/08/15 05:40:51;;;;;;;20.27;15.02;;;;;;;;;;5098161;28;20027;-44
2021/08/15 05:43:17;;;;;;;18.23;13.73;;;;;;;;;;5098210;28;20099;-45
2021/08/15 05:45:43;;;;;;;19.08;12.75;;;;;;;;;;5098254;28;20106;-47
2021/08/15 05:48:09;;;;;;;17.13;12.57;;;;;;;;;;5098094;28;20100;-47
2021/08/15 05:50:35;;;;;;;18.88;13.88;;;;;;;;;;5098084;28;20024;-44
2021/08/15 05:53:02;;;;;;;15.02;12.02;;;;;;;;;;5098120;28;20016;-45
2021/08/15 05:55:28;;;;;;;18.05;9.73;;;;;;;;;;5098210;28;20023;-45
2021/08/15 05:57:54;;;;;;;13.10;9.75;;;;;;;;;;5098038;28;20082;-45
2021/08/15 06:00:20;;;;;;;14.15;10.20;;;;;;;;;;5098125;28;20031;-45
2021/08/15 06:02:46;;;;;;;12.93;10.32;;;;;;;;;;5098053;28;20051;-48
2021/08/15 06:05:13;;;;;;;17.08;11.50;;;;;;;;;;5098081;28;20364;-47
2021/08/15 06:07:39;;;;;;;14.93;10.40;;;;;;;;;;5097897;28;20020;-45
2021/08/15 06:10:07;;;;;;;15.32;11.70;;;;;;;;;;5098021;28;20105;-45
2021/08/15 06:12:34;;;;;;;17.38;13.30;;;;;;;;;;5098050;28;20529;-47
2021/08/15 06:15:01;;;;;;;21.27;14.93;;;;;;;;;;5080157;28;20032;-47
2021/08/15 06:17:27;;;;;;;25.77;20.10;;;;;;;;;;5097779;28;20036;-45
2021/08/15 06:19:53;;;;;;;26.48;22.52;;;;;;;;;;5098205;28;20078;-46
2021/08/15 06:22:19;;;;;;;25.50;17.58;;;;;;;;;;5098126;28;20028;-45
2021/08/15 06:24:45;;;;;;;28.05;22.83;;;;;;;;;;5097995;28;20059;-48
2021/08/15 06:27:12;;;;;;;29.05;24.27;;;;;;;;;;5098017;28;20020;-47
2021/08/15 06:29:38;;;;;;;31.15;21.08;;;;;;;;;;5097831;28;20056;-45
2021/08/15 06:32:04;;;;;;;23.65;20.13;;;;;;;;;;5097805;28;20047;-46
2021/08/15 06:34:31;;;;;;;24.63;17.67;;;;;;;;;;5097863;28;20016;-45
2021/08/15 06:36:57;;;;;;;21.63;17.23;;;;;;;;;;5097850;28;20047;-46
2021/08/15 06:39:23;;;;;;;21.88;17.05;;;;;;;;;;5097745;28;20028;-47
2021/08/15 06:41:49;;;;;;;20.85;16.38;;;;;;;;;;5097699;28;20027;-45
2021/08/15 06:44:15;;;;;;;20.25;15.95;;;;;;;;;;5094518;28;20023;-44
2021/08/15 06:46:41;;;;;;;18.50;14.90;;;;;;;;;;5094449;28;20024;-45
2021/08/15 06:49:08;;;;;;;16.90;14.48;;;;;;;;;;5093547;28;20486;-45
2021/08/15 06:51:34;;;;;;;18.58;14.25;;;;;;;;;;5094082;28;20039;-44
2021/08/15 06:54:00;;;;;;;14.45;12.45;;;;;;;;;;5094336;28;20043;-46
2021/08/15 06:56:26;;;;;;;14.05;11.43;;;;;;;;;;5094414;28;20030;-45
2021/08/15 06:58:52;;;;;;;18.20;12.52;;;;;;;;;;5094500;28;20020;-47
2021/08/15 07:01:18;;;;;;;14.38;11.07;;;;;;;;;;5094326;28;20027;-44
2021/08/15 07:03:44;;;;;;;17.50;12.23;;;;;;;;;;5094224;28;20040;-47
2021/08/15 07:06:10;;;;;;;14.20;11.88;;;;;;;;;;5094163;28;20035;-45
2021/08/15 07:08:36;;;;;;;12.93;11.07;;;;;;;;;;5094242;28;20032;-44
2021/08/15 07:11:02;;;;;;;16.35;11.15;;;;;;;;;;5076047;28;20024;-47
2021/08/15 07:13:29;;;;;;;15.30;12.45;;;;;;;;;;5094097;28;20031;-48
2021/08/15 07:15:55;;;;;;;11.00;9.80;;;;;;;;;;5094215;28;20552;-46
2021/08/15 07:18:21;;;;;;;13.60;10.25;;;;;;;;;;5093841;28;20067;-46
2021/08/15 07:20:57;;;;;;;15.25;11.05;;;;;;;;;;5094311;28;20032;-46
2021/08/15 07:23:23;;;;;;;14.13;9.00;;;;;;;;;;5094044;28;20023;-45
2021/08/15 07:25:49;;;;;;;11.18;8.82;;;;;;;;;;5093790;28;20106;-44
2021/08/15 07:28:15;;;;;;;11.57;8.85;;;;;;;;;;5093771;28;20106;-45
2021/08/15 07:30:41;;;;;;;12.25;8.57;;;;;;;;;;5093536;28;20024;-45
2021/08/15 07:33:07;;;;;;;11.38;7.50;;;;;;;;;;5093649;28;20013;-45
2021/08/15 07:35:35;;;;;;;11.68;7.75;;;;;;;;;;5075505;28;20012;-46
2021/08/15 07:38:01;;;;;;;10.98;7.50;;;;;;;;;;5093647;28;20016;-45
2021/08/15 07:40:27;;;;;;;9.30;6.68;;;;;;;;;;5093587;28;20099;-46
2021/08/15 07:42:54;;;;;;;7.15;5.60;;;;;;;;;;5093606;28;20032;-46
2021/08/15 07:45:24;;;;;;;10.07;6.10;;;;;;;;;;5093536;28;20032;-45
2021/08/15 07:47:50;;;;;;;7.35;6.50;;;;;;;;;;5075217;28;20540;-49
2021/08/15 07:50:16;;;;;;;21.15;6.53;;;;;;;;;;5093447;28;20157;-46
2021/08/15 07:52:43;;;;;;;9.15;5.60;;;;;;;;;;5093554;28;20020;-45
2021/08/15 07:55:09;;;;;;;4.85;4.30;;;;;;;;;;5093100;28;20073;-47
2021/08/15 07:57:35;;;;;;;5.82;4.45;;;;;;;;;;5093208;28;20016;-47
2021/08/15 08:00:01;;;;;;;6.63;5.38;;;;;;;;;;5075069;28;20379;-46
2021/08/15 08:02:27;;;;;;;7.40;5.13;;;;;;;;;;5086514;28;20051;-46
2021/08/15 08:04:53;;;;;;;5.22;4.63;;;;;;;;;;5080822;28;20063;-46
2021/08/15 08:07:21;;;;;;;5.38;4.30;;;;;;;;;;5073005;28;20629;-46
2021/08/15 08:09:47;;;;;;;6.45;4.53;;;;;;;;;;5072642;28;20555;-45
2021/08/15 08:12:14;;;;;;;5.25;4.68;;;;;;;;;;5072873;28;20854;-45
2021/08/15 08:14:40;;;;;;;6.53;4.53;;;;;;;;;;5072767;28;20043;-45
2021/08/15 08:17:07;;;;;;;8.93;4.60;;;;;;;;;;5072553;28;20115;-43
2021/08/15 08:19:33;;;;;;;8.40;4.95;;;;;;;;;;5072823;28;20035;-47
2021/08/15 08:21:59;;;;;;;6.53;4.70;;;;;;;;;;5072492;28;20059;-47
2021/08/15 08:24:25;;;;;;;9.77;5.35;;;;;;;;;;5072529;28;20052;-49
2021/08/15 08:26:51;;;;;;;6.20;4.65;;;;;;;;;;5054816;28;20502;-46
2021/08/15 08:29:17;;;;;;;5.22;4.60;;;;;;;;;;5072170;28;20032;-47
2021/08/15 08:31:43;;;;;;;4.97;4.45;;;;;;;;;;5072212;28;20426;-45
2021/08/15 08:34:09;;;;;;;5.10;4.57;;;;;;;;;;5072418;28;20032;-45
2021/08/15 08:36:35;;;;;;;9.02;4.88;;;;;;;;;;5072368;28;20040;-45
2021/08/15 08:39:01;;;;;;;6.57;5.78;;;;;;;;;;5072134;28;20024;-45
2021/08/15 08:41:29;;;;;;;10.10;5.60;;;;;;;;;;5077485;28;20016;-48
2021/08/15 08:43:55;;;;;;;6.05;4.93;;;;;;;;;;5092375;28;20125;-47
2021/08/15 08:46:24;;;;;;;9.65;5.38;;;;;;;;;;5092338;28;20054;-45
2021/08/15 08:48:50;;;;;;;6.95;5.03;;;;;;;;;;5092166;28;20028;-46
2021/08/15 08:51:18;;;;;;;8.20;5.07;;;;;;;;;;5092104;28;20073;-46
2021/08/15 08:53:44;;;;;;;9.80;6.10;;;;;;;;;;5092122;28;20494;-45
2021/08/15 08:56:10;;;;;;;7.80;5.05;;;;;;;;;;5073988;28;20024;-47
2021/08/15 08:58:36;;;;;;;7.80;5.40;;;;;;;;;;5092169;28;20478;-45
2021/08/15 09:01:02;;;;;;;10.75;5.80;;;;;;;;;;5092117;28;20541;-46
2021/08/15 09:03:28;;;;;;;7.60;5.53;;;;;;;;;;5074013;28;20024;-45
2021/08/15 09:05:55;;;;;;;9.13;5.22;;;;;;;;;;5092072;28;20046;-45
2021/08/15 09:08:29;;;;;;;6.82;4.40;;;;;;;;;;5091370;28;20043;-47
2021/08/15 09:11:10;;;;;;;7.80;5.10;;;;;;;;;;5091722;28;20028;-46
2021/08/15 09:13:36;;;;;;;6.20;5.10;;;;;;;;;;5092049;28;20085;-45
2021/08/15 09:16:02;;;;;;;7.55;5.38;;;;;;;;;;5091999;28;20024;-45
2021/08/15 09:18:31;;;;;;;5.55;4.80;;;;;;;;;;5091772;28;20044;-46
2021/08/15 09:20:57;;;;;;;6.95;4.68;;;;;;;;;;5091697;28;20103;-47
2021/08/15 09:23:31;;;;;;;9.32;5.47;;;;;;;;;;5091885;28;20447;-47
2021/08/15 09:25:57;;;;;;;;;;;;;;;;;;5092208;28;20028;-45
2021/08/15 09:28:32;;;;;;;8.13;5.35;;;;;;;;;;5091764;28;19927;-47
2021/08/15 09:31:13;;;;;;;8.30;5.43;;;;;;;;;;5091931;28;20035;-48
2021/08/15 09:33:40;;;;;;;6.80;4.97;;;;;;;;;;5091660;28;20016;-47
2021/08/15 09:36:09;;;;;;;7.20;4.95;;;;;;;;;;5091619;28;20028;-47
2021/08/15 09:38:42;;;;;;;6.38;5.65;;;;;;;;;;5091652;28;20035;-46
2021/08/15 09:41:21;;;;;;;7.88;5.60;;;;;;;;;;5071740;28;20021;-47
2021/08/15 09:43:47;;;;;;;10.13;5.40;;;;;;;;;;5071424;28;20032;-46
2021/08/15 09:46:13;;;;;;;6.85;5.50;;;;;;;;;;5071254;28;20056;-45
2021/08/15 09:48:42;;;;;;;8.52;4.70;;;;;;;;;;5070028;28;20021;-46
2021/08/15 09:51:15;;;;;;;6.20;5.15;;;;;;;;;;5069881;28;20455;-46
2021/08/15 09:53:43;;;;;;;10.40;5.68;;;;;;;;;;5071413;28;20024;-46
2021/08/15 09:56:09;;;;;;;6.72;4.80;;;;;;;;;;5071305;28;20024;-48
2021/08/15 09:58:36;;;;;;;6.40;5.00;;;;;;;;;;5071380;28;20467;-49
2021/08/15 10:01:03;;;;;;;8.25;5.57;;;;;;;;;;5071129;28;20035;-48
2021/08/15 10:03:29;;;;;;;9.77;4.95;;;;;;;;;;5071420;28;20116;-44
2021/08/15 10:05:57;;;;;;;6.85;4.53;;;;;;;;;;5069782;28;20032;-45
2021/08/15 10:08:23;;;;;;;9.43;4.82;;;;;;;;;;5069761;28;20094;-44
2021/08/15 10:10:50;;;;;;;8.07;4.93;;;;;;;;;;5070992;28;20103;-45
2021/08/15 10:13:19;;;;;;;6.55;4.43;;;;;;;;;;5071056;28;20024;-44
2021/08/15 10:15:53;;;;;;;6.13;4.82;;;;;;;;;;5070035;28;20138;-44
2021/08/15 10:18:21;;;;;;;9.50;4.85;;;;;;;;;;5070837;28;20067;-47
2021/08/15 10:20:48;;;;;;;4.82;4.00;;;;;;;;;;5074779;28;20029;-44
2021/08/15 10:23:15;;;;;;;5.75;4.30;;;;;;;;;;5092057;28;20506;-45
2021/08/15 10:25:42;;;;;;;8.23;4.20;;;;;;;;;;5094453;28;20422;-44
2021/08/15 10:28:09;;;;;;;8.25;3.90;;;;;;;;;;5093872;28;20474;-45
2021/08/15 10:30:35;;;;;;;5.65;3.55;;;;;;;;;;5094608;28;20028;-46
2021/08/15 10:33:04;;;;;;;5.07;3.85;;;;;;;;;;5094817;28;20020;-45
2021/08/15 10:35:35;;;;;;;4.80;3.90;;;;;;;;;;5094619;28;20024;-45
2021/08/15 10:38:02;;;;;;;9.13;4.20;;;;;;;;;;5094678;28;20489;-45
2021/08/15 10:40:40;;;;;;;5.93;4.03;;;;;;;;;;5094485;28;20059;-44
2021/08/15 10:43:16;;;;;;;5.13;3.72;;;;;;;;;;5094593;28;20031;-44
2021/08/15 10:45:43;;;;;;;4.90;3.92;;;;;;;;;;5094429;28;20032;-43
2021/08/15 10:48:09;;;;;;;4.63;4.00;;;;;;;;;;5094360;28;20027;-46
2021/08/15 10:50:46;;;;;;;7.30;4.32;;;;;;;;;;5094222;28;20031;-45
2021/08/15 10:55:54;;;;;;;4.57;4.00;;;;;;;;;;5094462;28;20107;-46
2021/08/15 10:58:38;;;;;;;8.13;4.30;;;;;;;;;;5076308;28;20073;-44
2021/08/15 11:01:13;;;;;;;4.40;4.00;;;;;;;;;;5094165;28;20024;-45
2021/08/15 11:03:48;;;;;;;4.15;3.58;;;;;;;;;;5094031;28;20028;-44
2021/08/15 11:06:41;;;;;;;7.45;4.30;;;;;;;;;;5094080;28;20051;-45
2021/08/15 11:09:08;;;;;;;6.15;4.00;;;;;;;;;;5083751;28;20039;-44
2021/08/15 11:11:36;;;;;;;5.75;4.43;;;;;;;;;;5075960;28;20028;-44
2021/08/15 11:14:21;;;;;;;8.40;3.70;;;;;;;;;;5093917;28;20491;-45
2021/08/15 11:16:51;;;;;;;4.95;3.95;;;;;;;;;;5093771;28;20099;-45
2021/08/15 11:19:17;;;;;;;7.55;3.85;;;;;;;;;;5093340;28;20028;-47
2021/08/15 11:22:04;;;;;;;4.25;3.80;;;;;;;;;;5093924;28;20101;-44
2021/08/15 11:24:31;;;;;;;4.00;3.63;;;;;;;;;;5093692;28;20039;-45
2021/08/15 11:26:57;;;;;;;5.82;3.72;;;;;;;;;;5093610;28;20020;-46
2021/08/15 11:29:23;;;;;;;4.75;3.47;;;;;;;;;;5093022;28;20082;-46
2021/08/15 11:31:50;;;;;;;4.90;3.85;;;;;;;;;;5093578;28;20024;-45
2021/08/15 11:34:16;;;;;;;4.28;3.63;;;;;;;;;;5093260;28;20059;-45
2021/08/15 11:36:43;;;;;;;4.18;3.78;;;;;;;;;;5092953;28;20073;-44
2021/08/15 11:39:09;;;;;;;5.18;3.60;;;;;;;;;;5093324;28;20100;-45
2021/08/15 11:41:35;;;;;;;5.63;4.03;;;;;;;;;;5075403;28;20032;-45
2021/08/15 11:44:02;;;;;;;4.05;3.65;;;;;;;;;;5093331;28;20073;-48
2021/08/15 11:46:28;;;;;;;4.85;3.67;;;;;;;;;;5075177;28;20035;-44
2021/08/15 11:48:54;;;;;;;4.68;3.60;;;;;;;;;;5093362;28;20027;-44
2021/08/15 11:51:20;;;;;;;4.13;3.67;;;;;;;;;;5093264;28;20110;-44
2021/08/15 11:53:49;;;;;;;6.75;3.40;;;;;;;;;;5093401;28;20020;-45
2021/08/15 11:56:16;;;;;;;4.50;3.97;;;;;;;;;;5092655;28;20024;-47
2021/08/15 11:58:48;;;;;;;3.80;3.40;;;;;;;;;;5093194;28;20027;-46
2021/08/15 12:01:16;;;;;;;4.18;2.95;;;;;;;;;;5074990;28;20031;-45
2021/08/15 12:03:42;;;;;;;3.80;3.50;;;;;;;;;;5092970;28;20481;-45
2021/08/15 12:06:09;;;;;;;4.45;3.45;;;;;;;;;;5074958;28;20063;-47
2021/08/15 12:08:39;;;;;;;3.88;3.55;;;;;;;;;;5093157;28;20028;-46
2021/08/15 12:11:24;;;;;;;5.70;3.75;;;;;;;;;;5092835;28;20024;-45
2021/08/15 12:13:52;;;;;;;4.00;3.53;;;;;;;;;;5092969;28;20141;-45
2021/08/15 12:16:21;;;;;;;4.20;3.80;;;;;;;;;;5092999;28;20379;-45
2021/08/15 12:18:52;;;;;;;4.32;3.92;;;;;;;;;;5074360;28;20137;-47
2021/08/15 12:21:35;;;;;;;5.80;4.00;;;;;;;;;;5092871;28;20028;-45
2021/08/15 12:24:01;;;;;;;4.85;4.18;;;;;;;;;;5092782;28;20032;-46
2021/08/15 12:26:31;;;;;;;3.67;3.38;;;;;;;;;;5074437;28;20027;-45
2021/08/15 12:28:58;;;;;;;4.40;3.63;;;;;;;;;;5074402;28;20031;-44
2021/08/15 12:31:29;;;;;;;4.10;3.55;;;;;;;;;;5088942;28;20483;-44
2021/08/15 12:34:09;;;;;;;3.88;3.35;;;;;;;;;;5080143;28;20064;-44
2021/08/15 12:36:43;;;;;;;5.93;3.65;;;;;;;;;;5079657;28;20387;-44
2021/08/15 12:39:09;;;;;;;5.55;3.35;;;;;;;;;;5081734;28;20015;-46
2021/08/15 12:41:55;;;;;;;5.43;4.25;;;;;;;;;;5061228;28;20029;-46
2021/08/15 12:44:32;;;;;;;4.43;3.90;;;;;;;;;;5082011;28;20031;-44
2021/08/15 12:47:03;;;;;;;5.13;4.05;;;;;;;;;;5084274;28;20059;-45
2021/08/15 12:49:46;;;;;;;4.65;3.60;;;;;;;;;;5078941;28;20024;-46
2021/08/15 12:52:22;;;;;;;4.35;3.95;;;;;;;;;;5081717;28;20061;-46
2021/08/15 12:55:02;;;;;;;5.40;4.05;;;;;;;;;;5063443;28;20044;-50
2021/08/15 12:57:29;;;;;;;4.78;4.07;;;;;;;;;;5081865;28;20020;-46
2021/08/15 12:59:55;;;;;;;5.03;3.63;;;;;;;;;;5064486;28;20043;-44
2021/08/15 13:02:21;;;;;;;4.55;4.13;;;;;;;;;;5081051;28;20387;-45
2021/08/15 13:04:47;;;;;;;5.40;3.65;;;;;;;;;;5081285;28;20101;-46
2021/08/15 13:07:14;;;;;;;5.25;3.70;;;;;;;;;;5079443;28;20349;-49
2021/08/15 13:09:40;;;;;;;5.80;3.90;;;;;;;;;;5080726;28;20039;-45
2021/08/15 13:12:06;;;;;;;4.78;4.28;;;;;;;;;;5080954;28;20070;-45
2021/08/15 13:14:32;;;;;;;5.72;3.65;;;;;;;;;;5079279;28;20024;-44
2021/08/15 13:17:01;;;;;;;4.15;3.75;;;;;;;;;;5080791;28;20355;-45
2021/08/15 13:19:27;;;;;;;4.95;4.03;;;;;;;;;;5081152;28;20071;-45
2021/08/15 13:21:53;;;;;;;3.97;3.58;;;;;;;;;;5079294;28;20348;-45
2021/08/15 13:24:19;;;;;;;9.98;4.00;;;;;;;;;;5080786;28;20023;-44
2021/08/15 13:26:45;;;;;;;7.43;4.10;;;;;;;;;;5080731;28;20100;-45
2021/08/15 13:29:11;;;;;;;3.85;3.50;;;;;;;;;;5079107;28;20549;-46
2021/08/15 13:31:37;;;;;;;4.97;3.80;;;;;;;;;;5080947;28;20016;-46
2021/08/15 13:34:03;;;;;;;3.88;3.38;;;;;;;;;;5080265;28;20025;-48
2021/08/15 13:36:31;;;;;;;4.50;3.42;;;;;;;;;;5079406;28;20016;-47
2021/08/15 13:38:57;;;;;;;4.78;3.90;;;;;;;;;;5079149;28;20024;-52
2021/08/15 13:41:23;;;;;;;3.65;3.35;;;;;;;;;;5080633;28;20024;-46
2021/08/15 13:43:49;;;;;;;4.57;3.70;;;;;;;;;;5078315;28;20076;-45
2021/08/15 13:46:15;;;;;;;4.80;3.63;;;;;;;;;;5081000;28;20521;-45
2021/08/15 13:48:41;;;;;;;3.55;3.25;;;;;;;;;;5079716;28;20470;-45
2021/08/15 13:51:07;;;;;;;4.13;3.45;;;;;;;;;;5085045;28;20028;-46
2021/08/15 13:53:33;;;;;;;3.63;3.28;;;;;;;;;;5093470;28;20031;-47
2021/08/15 13:56:00;;;;;;;3.58;3.10;;;;;;;;;;5085226;28;20024;-47
2021/08/15 13:58:26;;;;;;;7.25;2.95;;;;;;;;;;5095208;28;20560;-49
2021/08/15 14:00:52;;;;;;;3.92;3.50;;;;;;;;;;5095340;28;20043;-47
2021/08/15 14:03:22;;;;;;;4.53;3.70;;;;;;;;;;5095466;28;20059;-46
2021/08/15 14:05:48;;;;;;;3.45;3.13;;;;;;;;;;5095287;28;20020;-45
2021/08/15 14:08:14;;;;;;;3.40;3.10;;;;;;;;;;5095320;28;20102;-45
2021/08/15 14:10:41;;;;;;;5.28;3.70;;;;;;;;;;5095180;28;20028;-44
2021/08/15 14:13:11;;;;;;;3.88;3.47;;;;;;;;;;5095276;28;20046;-44
2021/08/15 14:15:38;;;;;;;3.60;3.30;;;;;;;;;;5095142;28;20457;-46
2021/08/15 14:18:04;;;;;;;4.80;3.60;;;;;;;;;;5095077;28;20052;-47
2021/08/15 14:20:30;;;;;;;4.57;3.80;;;;;;;;;;5095161;28;20113;-47
2021/08/15 14:22:56;;;;;;;3.58;3.30;;;;;;;;;;5095144;28;20040;-46
2021/08/15 14:25:22;;;;;;;3.40;3.13;;;;;;;;;;5094978;28;20510;-49
2021/08/15 14:27:48;;;;;;;3.78;3.45;;;;;;;;;;5095021;28;20024;-46
2021/08/15 14:30:15;;;;;;;4.22;3.28;;;;;;;;;;5094947;28;20503;-48
2021/08/15 14:32:42;;;;;;;3.50;3.20;;;;;;;;;;5076860;28;20027;-48
2021/08/15 14:35:08;;;;;;;3.10;2.75;;;;;;;;;;5095560;28;20687;-47